createdAt,value
2023-02-14T00:01:57.359Z,1.42
2023-02-14T00:04:25.833Z,1.37
2023-02-14T00:06:54.286Z,1.48
2023-02-14T00:09:22.602Z,1.38
2023-02-14T00:11:51.350Z,1.42
2023-02-14T00:14:37.067Z,1.27
2023-02-14T00:17:07.303Z,1.22
2023-02-14T00:19:36.196Z,1.29
2023-02-14T00:22:05.593Z,1.36
2023-02-14T00:24:34.404Z,1.19
2023-02-14T00:27:02.723Z,1.38
2023-02-14T00:29:33.398Z,1.31
2023-02-14T00:32:04.051Z,1.36
2023-02-14T00:34:36.523Z,1.29
2023-02-14T00:37:05.159Z,1.33
2023-02-14T00:39:33.595Z,1.20
2023-02-14T00:42:02.037Z,1.33
2023-02-14T00:44:30.580Z,1.35
2023-02-14T00:46:59.331Z,1.36
2023-02-14T00:49:27.639Z,1.39
2023-02-14T00:51:57.630Z,1.15
2023-02-14T00:54:26.290Z,1.09
2023-02-14T00:56:54.649Z,1.16
2023-02-14T00:59:22.987Z,1.08
2023-02-14T01:01:51.383Z,1.02
2023-02-14T01:04:19.808Z,0.90
2023-02-14T01:06:48.155Z,1.22
2023-02-14T01:09:17.889Z,1.22
2023-02-14T01:11:46.236Z,1.13
2023-02-14T01:14:16.308Z,1.16
2023-02-14T01:16:44.808Z,1.02
2023-02-14T01:19:13.323Z,0.94
2023-02-14T01:21:45.380Z,1.06
2023-02-14T01:24:14.077Z,1.13
2023-02-14T01:26:45.894Z,1.14
2023-02-14T01:29:14.391Z,1.12
2023-02-14T01:31:42.783Z,1.05
2023-02-14T01:34:11.240Z,0.96
2023-02-14T01:36:41.061Z,0.92
2023-02-14T01:39:13.611Z,0.84
2023-02-14T01:41:48.544Z,0.68
2023-02-14T01:44:59.541Z,0.77
2023-02-14T01:47:30.416Z,0.63
2023-02-14T01:50:03.816Z,0.56
2023-02-14T01:52:38.031Z,0.47
2023-02-14T01:55:12.219Z,0.46
2023-02-14T01:57:45.331Z,0.46
2023-02-14T02:00:32.372Z,0.47
2023-02-14T02:03:02.454Z,0.43
2023-02-14T02:05:30.982Z,0.32
2023-02-14T02:08:01.450Z,0.25
2023-02-14T02:10:30.395Z,0.32
2023-02-14T02:13:07.518Z,0.25
2023-02-14T02:15:51.052Z,0.28
2023-02-14T02:18:28.200Z,0.23
2023-02-14T02:21:32.658Z,0.32
2023-02-14T02:24:27.480Z,0.23
2023-02-14T02:27:31.542Z,0.21
2023-02-14T02:30:56.609Z,0.16
2023-02-14T02:34:07.831Z,0.11
2023-02-14T02:37:02.132Z,0.19
2023-02-14T02:39:57.715Z,0.10
2023-02-14T02:42:37.407Z,0.05
2023-02-14T02:45:15.068Z,-0.17
2023-02-14T02:47:53.803Z,-0.05
2023-02-14T02:50:46.711Z,0.04
2023-02-14T02:53:23.286Z,0.05
2023-02-14T02:56:17.105Z,-0.08
2023-02-14T02:58:52.182Z,0.00
2023-02-14T03:01:25.618Z,-0.05
2023-02-14T03:04:18.423Z,-0.07
2023-02-14T03:06:47.473Z,-0.15
2023-02-14T03:09:54.635Z,-0.17
2023-02-14T03:12:48.602Z,-0.22
2023-02-14T03:15:30.084Z,-0.31
2023-02-14T03:18:06.098Z,-0.34
2023-02-14T03:20:44.898Z,-0.20
2023-02-14T03:23:21.876Z,-0.25
2023-02-14T03:26:07.164Z,-0.24
2023-02-14T03:28:46.970Z,-0.18
2023-02-14T03:31:25.282Z,-0.14
2023-02-14T03:34:02.630Z,-0.17
2023-02-14T03:36:38.554Z,-0.22
2023-02-14T03:39:14.743Z,-0.31
2023-02-14T03:41:52.200Z,-0.29
2023-02-14T03:44:28.456Z,-0.32
2023-02-14T03:47:03.911Z,-0.31
2023-02-14T03:49:37.594Z,-0.42
2023-02-14T03:52:17.488Z,-0.39
2023-02-14T03:54:49.053Z,-0.48
2023-02-14T03:57:25.526Z,-0.44
2023-02-14T03:59:55.124Z,-0.60
2023-02-14T04:02:30.600Z,-0.52
2023-02-14T04:05:02.083Z,-0.59
2023-02-14T04:07:30.607Z,-0.60
2023-02-14T04:09:58.944Z,-0.59
2023-02-14T04:12:37.467Z,-0.57
2023-02-14T04:15:07.815Z,-0.72
2023-02-14T04:17:53.767Z,-0.77
2023-02-14T04:20:22.426Z,-0.73
2023-02-14T04:22:55.028Z,-0.64
2023-02-14T04:25:24.931Z,-0.59
2023-02-14T04:27:54.647Z,-0.63
2023-02-14T04:30:23.351Z,-0.56
2023-02-14T04:32:51.673Z,-0.66
2023-02-14T04:35:20.075Z,-0.48
2023-02-14T04:37:48.443Z,-0.58
2023-02-14T04:40:17.922Z,-0.60
2023-02-14T04:42:47.193Z,-0.57
2023-02-14T04:45:17.011Z,-0.79
2023-02-14T04:47:45.334Z,-0.57
2023-02-14T04:50:15.005Z,-0.68
2023-02-14T04:52:43.348Z,-0.73
2023-02-14T04:55:12.229Z,-0.79
2023-02-14T04:57:40.665Z,-0.69
2023-02-14T05:00:10.562Z,-0.92
2023-02-14T05:02:40.296Z,-0.88
2023-02-14T05:05:09.805Z,-0.72
2023-02-14T05:07:38.622Z,-0.72
2023-02-14T05:10:08.380Z,-0.73
2023-02-14T05:12:36.932Z,-0.90
2023-02-14T05:15:05.670Z,-0.76
2023-02-14T05:17:34.059Z,-0.82
2023-02-14T05:20:04.295Z,-0.83
2023-02-14T05:22:32.712Z,-0.85
2023-02-14T05:25:01.253Z,-0.93
2023-02-14T05:27:29.648Z,-0.87
2023-02-14T05:29:58.099Z,-0.92
2023-02-14T05:32:26.570Z,-0.90
2023-02-14T05:34:54.875Z,-1.06
2023-02-14T05:37:24.577Z,-0.85
2023-02-14T05:39:53.042Z,-0.83
2023-02-14T05:42:21.323Z,-0.87
2023-02-14T05:44:49.693Z,-0.85
2023-02-14T05:47:18.064Z,-0.81
2023-02-14T05:49:46.512Z,-0.88
2023-02-14T05:52:14.955Z,-0.79
2023-02-14T05:54:44.900Z,-0.82
2023-02-14T05:57:13.269Z,-0.75
2023-02-14T05:59:43.998Z,-0.84
2023-02-14T06:02:12.480Z,-0.74
2023-02-14T06:04:41.236Z,-0.72
2023-02-14T06:07:09.994Z,-0.71
2023-02-14T06:09:38.311Z,-0.69
2023-02-14T06:12:08.911Z,-0.67
2023-02-14T06:14:37.570Z,-0.69
2023-02-14T06:17:06.328Z,-0.68
2023-02-14T06:19:34.741Z,-0.59
2023-02-14T06:22:03.070Z,-0.55
2023-02-14T06:24:31.442Z,-0.53
2023-02-14T06:27:00.957Z,-0.61
2023-02-14T06:29:30.748Z,-0.54
2023-02-14T06:32:05.740Z,-0.55
2023-02-14T06:34:34.733Z,-0.52
2023-02-14T06:37:03.110Z,-0.52
2023-02-14T06:39:31.573Z,-0.47
2023-02-14T06:41:59.876Z,-0.48
2023-02-14T06:44:28.317Z,-0.50
2023-02-14T06:46:58.028Z,-0.56
2023-02-14T06:49:26.493Z,-0.54
2023-02-14T06:51:54.855Z,-0.56
2023-02-14T06:54:23.320Z,-0.61
2023-02-14T06:56:51.870Z,-0.54
2023-02-14T06:59:20.224Z,-0.74
2023-02-14T07:01:48.923Z,-0.58
2023-02-14T07:04:18.825Z,-0.52
2023-02-14T07:06:47.734Z,-0.63
2023-02-14T07:09:17.911Z,-0.49
2023-02-14T07:11:46.950Z,-0.46
2023-02-14T07:14:15.583Z,-0.60
2023-02-14T07:16:43.957Z,-0.49
2023-02-14T07:19:12.426Z,-0.47
2023-02-14T07:21:42.236Z,-0.45
2023-02-14T07:24:10.616Z,-0.36
2023-02-14T07:26:39.089Z,-0.36
2023-02-14T07:29:07.806Z,-0.37
2023-02-14T07:31:36.250Z,-0.21
2023-02-14T07:34:04.745Z,-0.18
2023-02-14T07:36:33.205Z,-0.05
2023-02-14T07:39:02.954Z,0.01
2023-02-14T07:41:31.323Z,-0.15
2023-02-14T07:44:00.244Z,0.11
2023-02-14T07:46:28.791Z,0.15
2023-02-14T07:48:57.233Z,0.17
2023-02-14T07:51:25.520Z,0.31
2023-02-14T07:53:53.847Z,0.34
2023-02-14T07:56:23.610Z,0.37
2023-02-14T07:58:51.991Z,0.26
2023-02-14T08:01:21.077Z,0.44
2023-02-14T08:03:50.079Z,0.54
2023-02-14T08:06:19.963Z,0.49
2023-02-14T08:08:49.375Z,0.61
2023-02-14T08:11:38.324Z,0.78
2023-02-14T08:14:08.183Z,0.84
2023-02-14T08:16:38.160Z,0.96
2023-02-14T08:19:06.692Z,1.02
2023-02-14T08:21:35.079Z,0.81
2023-02-14T08:24:03.620Z,1.11
2023-02-14T08:26:32.556Z,1.14
2023-02-14T08:29:02.338Z,1.21
2023-02-14T08:31:36.102Z,1.25
2023-02-14T08:34:05.440Z,1.28
2023-02-14T08:36:34.454Z,1.41
2023-02-14T08:39:04.501Z,1.52
2023-02-14T08:41:33.148Z,1.65
2023-02-14T08:44:02.055Z,1.61
2023-02-14T08:46:31.897Z,1.86
2023-02-14T08:49:00.478Z,1.83
2023-02-14T08:51:28.883Z,1.88
2023-02-14T08:53:57.264Z,2.03
2023-02-14T08:56:25.585Z,2.10
2023-02-14T08:58:55.194Z,2.12
2023-02-14T09:01:23.758Z,2.47
2023-02-14T09:03:53.585Z,2.53
2023-02-14T09:06:22.047Z,2.67
2023-02-14T09:08:50.942Z,2.74
2023-02-14T09:11:22.940Z,2.80
2023-02-14T09:13:53.133Z,3.29
2023-02-14T09:16:23.462Z,3.51
2023-02-14T09:18:54.641Z,3.52
2023-02-14T09:21:25.850Z,3.74
2023-02-14T09:23:54.838Z,3.67
2023-02-14T09:26:23.402Z,3.64
2023-02-14T09:28:51.817Z,3.93
2023-02-14T09:31:24.299Z,4.02
2023-02-14T09:34:11.399Z,4.19
2023-02-14T09:36:57.779Z,4.39
2023-02-14T09:39:26.285Z,4.52
2023-02-14T09:42:11.124Z,4.69
2023-02-14T09:44:43.373Z,4.85
2023-02-14T09:47:22.097Z,4.97
2023-02-14T09:49:54.382Z,5.03
2023-02-14T09:52:27.375Z,5.08
2023-02-14T09:54:59.074Z,5.45
2023-02-14T09:57:40.073Z,5.70
2023-02-14T10:00:21.653Z,5.92
2023-02-14T10:03:03.027Z,6.26
2023-02-14T10:05:38.583Z,6.39
2023-02-14T10:08:23.954Z,6.35
2023-02-14T10:11:08.106Z,6.64
2023-02-14T10:13:44.844Z,6.84
2023-02-14T10:16:21.814Z,6.87
2023-02-14T10:18:58.175Z,7.08
2023-02-14T10:21:34.927Z,7.13
2023-02-14T10:24:12.438Z,7.15
2023-02-14T10:26:42.041Z,7.21
2023-02-14T10:29:16.543Z,7.19
2023-02-14T10:31:55.795Z,7.54
2023-02-14T10:34:34.432Z,7.47
2023-02-14T10:37:25.290Z,7.54
2023-02-14T10:40:11.493Z,7.70
2023-02-14T10:42:52.686Z,7.66
2023-02-14T10:45:33.963Z,7.93
2023-02-14T10:48:13.297Z,8.23
2023-02-14T10:50:55.929Z,8.50
2023-02-14T10:53:38.351Z,8.45
2023-02-14T10:56:18.594Z,8.37
2023-02-14T10:58:50.452Z,8.51
2023-02-14T11:01:20.785Z,8.35
2023-02-14T11:03:58.569Z,8.63
2023-02-14T11:06:27.205Z,8.97
2023-02-14T11:08:57.458Z,9.16
2023-02-14T11:11:31.527Z,9.02
2023-02-14T11:13:59.972Z,9.22
2023-02-14T11:16:33.893Z,8.91
2023-02-14T11:19:20.148Z,9.18
2023-02-14T11:21:51.809Z,9.17
2023-02-14T11:24:29.908Z,8.85
2023-02-14T11:27:01.950Z,9.30
2023-02-14T11:29:36.238Z,9.63
2023-02-14T11:32:10.754Z,9.79
2023-02-14T11:34:42.552Z,9.96
2023-02-14T11:37:28.003Z,10.14
2023-02-14T11:40:01.436Z,10.39
2023-02-14T11:42:44.423Z,10.53
2023-02-14T11:45:32.911Z,10.74
2023-02-14T11:48:22.362Z,10.95
2023-02-14T11:51:05.349Z,11.14
2023-02-14T11:53:46.032Z,11.39
2023-02-14T11:56:17.810Z,11.56
2023-02-14T11:58:53.097Z,11.65
2023-02-14T12:01:27.818Z,11.80
2023-02-14T12:04:01.059Z,11.97
2023-02-14T12:06:33.037Z,12.23
2023-02-14T12:09:14.481Z,12.41
2023-02-14T12:11:57.599Z,12.64
2023-02-14T12:14:30.101Z,12.43
2023-02-14T12:17:05.790Z,12.57
2023-02-14T12:19:43.759Z,12.58
2023-02-14T12:22:18.082Z,12.66
2023-02-14T12:24:55.178Z,12.47
2023-02-14T12:27:29.194Z,12.66
2023-02-14T12:30:05.294Z,12.74
2023-02-14T12:32:34.921Z,12.82
2023-02-14T12:35:07.839Z,13.17
2023-02-14T12:38:02.685Z,13.32
2023-02-14T12:40:46.730Z,13.28
2023-02-14T12:43:45.767Z,13.66
2023-02-14T12:46:36.404Z,13.80
2023-02-14T12:49:49.609Z,13.60
2023-02-14T12:52:42.836Z,13.73
2023-02-14T12:55:34.376Z,13.98
2023-02-14T12:58:12.879Z,13.92
2023-02-14T13:01:04.414Z,14.17
2023-02-14T13:03:59.156Z,14.23
2023-02-14T13:06:32.084Z,14.28
2023-02-14T13:09:19.525Z,14.48
2023-02-14T13:12:02.641Z,14.52
2023-02-14T13:14:51.456Z,14.65
2023-02-14T13:17:34.909Z,14.79
2023-02-14T13:20:30.962Z,14.79
2023-02-14T13:23:06.169Z,14.92
2023-02-14T13:25:42.879Z,15.00
2023-02-14T13:28:15.687Z,15.26
2023-02-14T13:30:44.170Z,15.20
2023-02-14T13:33:28.369Z,14.87
2023-02-14T13:36:01.618Z,15.03
2023-02-14T13:38:32.263Z,14.93
2023-02-14T13:41:02.961Z,14.85
2023-02-14T13:43:52.676Z,14.98
2023-02-14T13:46:54.207Z,15.19
2023-02-14T13:49:31.731Z,15.22
2023-02-14T13:52:03.834Z,15.45
2023-02-14T13:54:44.890Z,15.52
2023-02-14T13:57:33.939Z,15.67
2023-02-14T14:00:41.591Z,15.64
2023-02-14T14:03:16.558Z,15.57
2023-02-14T14:06:04.724Z,15.70
2023-02-14T14:08:49.422Z,15.69
2023-02-14T14:11:58.524Z,15.79
2023-02-14T14:14:39.743Z,15.80
2023-02-14T14:17:28.746Z,15.86
2023-02-14T14:19:58.082Z,15.92
2023-02-14T14:22:29.128Z,15.84
2023-02-14T14:25:06.418Z,15.76
2023-02-14T14:27:41.448Z,15.61
2023-02-14T14:30:20.527Z,15.49
2023-02-14T14:32:48.992Z,15.68
2023-02-14T14:35:21.998Z,15.54
2023-02-14T14:37:54.580Z,15.77
2023-02-14T14:40:28.793Z,15.64
2023-02-14T14:43:01.948Z,15.64
2023-02-14T14:45:32.403Z,15.59
2023-02-14T14:48:09.250Z,15.52
2023-02-14T14:50:39.852Z,15.49
2023-02-14T14:53:20.788Z,15.48
2023-02-14T14:55:52.301Z,15.53
2023-02-14T14:58:40.307Z,15.54
2023-02-14T15:01:16.088Z,15.38
2023-02-14T15:03:45.608Z,15.47
2023-02-14T15:06:20.089Z,15.23
2023-02-14T15:08:51.481Z,15.04
2023-02-14T15:11:42.150Z,15.03
2023-02-14T15:14:18.202Z,14.62
2023-02-14T15:16:49.607Z,14.49
2023-02-14T15:19:21.925Z,14.08
2023-02-14T15:21:51.089Z,14.11
2023-02-14T15:24:21.417Z,13.95
2023-02-14T15:26:53.468Z,13.62
2023-02-14T15:29:26.463Z,13.66
2023-02-14T15:31:57.514Z,13.43
2023-02-14T15:34:28.787Z,13.33
2023-02-14T15:37:03.565Z,13.21
2023-02-14T15:39:38.048Z,12.96
2023-02-14T15:42:07.457Z,12.98
2023-02-14T15:44:35.991Z,12.88
2023-02-14T15:47:06.987Z,12.82
2023-02-14T15:49:40.938Z,12.50
2023-02-14T15:52:14.177Z,12.37
2023-02-14T15:54:47.395Z,12.25
2023-02-14T15:57:25.163Z,11.97
2023-02-14T15:59:54.009Z,11.96
2023-02-14T16:02:36.091Z,11.50
2023-02-14T16:05:08.020Z,11.51
2023-02-14T16:07:36.684Z,11.38
2023-02-14T16:10:27.909Z,11.37
2023-02-14T16:13:00.735Z,11.09
2023-02-14T16:15:31.831Z,11.09
2023-02-14T16:18:01.142Z,10.74
2023-02-14T16:20:40.926Z,10.72
2023-02-14T16:23:18.776Z,10.43
2023-02-14T16:25:49.172Z,10.33
2023-02-14T16:28:18.878Z,10.16
2023-02-14T16:30:49.678Z,10.06
2023-02-14T16:33:22.864Z,10.00
2023-02-14T16:35:51.971Z,10.06
2023-02-14T16:38:23.215Z,9.99
2023-02-14T16:40:55.517Z,9.96
2023-02-14T16:43:23.892Z,9.79
2023-02-14T16:45:52.316Z,9.60
2023-02-14T16:48:21.179Z,9.43
2023-02-14T16:50:49.666Z,9.22
2023-02-14T16:53:26.859Z,9.10
2023-02-14T16:55:58.402Z,8.92
2023-02-14T16:58:33.071Z,8.88
2023-02-14T17:01:01.686Z,8.73
2023-02-14T17:03:30.300Z,8.57
2023-02-14T17:06:01.363Z,8.40
2023-02-14T17:08:30.707Z,8.35
2023-02-14T17:11:02.178Z,8.31
2023-02-14T17:13:34.830Z,8.14
2023-02-14T17:16:04.595Z,7.88
2023-02-14T17:18:37.156Z,7.72
2023-02-14T17:21:06.740Z,7.70
2023-02-14T17:23:35.145Z,7.57
2023-02-14T17:26:06.278Z,7.53
2023-02-14T17:28:34.894Z,7.33
2023-02-14T17:31:03.582Z,7.29
2023-02-14T17:33:33.683Z,7.15
2023-02-14T17:36:06.703Z,6.99
2023-02-14T17:38:36.216Z,6.99
2023-02-14T17:41:14.970Z,6.55
2023-02-14T17:43:43.796Z,6.80
2023-02-14T17:46:14.282Z,6.62
2023-02-14T17:48:45.354Z,6.53
2023-02-14T17:51:14.742Z,6.40
2023-02-14T17:53:43.714Z,6.13
2023-02-14T17:56:17.942Z,6.20
2023-02-14T17:58:47.814Z,6.09
2023-02-14T18:01:18.900Z,6.14
2023-02-14T18:03:47.675Z,6.06
2023-02-14T18:06:16.699Z,5.89
2023-02-14T18:08:49.333Z,5.64
2023-02-14T18:11:20.924Z,5.69
2023-02-14T18:13:49.741Z,5.74
2023-02-14T18:16:20.277Z,5.67
2023-02-14T18:18:49.369Z,5.67
2023-02-14T18:21:20.957Z,5.43
2023-02-14T18:23:49.794Z,5.40
2023-02-14T18:26:20.327Z,5.33
2023-02-14T18:28:50.952Z,5.36
2023-02-14T18:31:20.235Z,5.13
2023-02-14T18:33:50.699Z,5.16
2023-02-14T18:36:24.182Z,5.03
2023-02-14T18:38:54.759Z,4.97
2023-02-14T18:41:29.579Z,4.82
2023-02-14T18:43:58.362Z,4.85
2023-02-14T18:46:29.047Z,4.94
2023-02-14T18:48:58.607Z,4.86
2023-02-14T18:51:29.357Z,4.80
2023-02-14T18:53:59.665Z,4.64
2023-02-14T18:56:32.644Z,4.59
2023-02-14T18:59:03.906Z,4.49
2023-02-14T19:01:36.903Z,4.43
2023-02-14T19:04:08.953Z,4.44
2023-02-14T19:06:37.844Z,4.20
2023-02-14T19:09:11.456Z,4.17
2023-02-14T19:11:42.046Z,4.22
2023-02-14T19:14:12.671Z,4.03
2023-02-14T19:16:50.124Z,3.95
2023-02-14T19:19:18.819Z,4.02
2023-02-14T19:21:47.555Z,3.86
2023-02-14T19:24:18.312Z,3.80
2023-02-14T19:26:48.413Z,3.86
2023-02-14T19:29:19.577Z,3.83
2023-02-14T19:31:50.145Z,3.58
2023-02-14T19:34:21.158Z,3.71
2023-02-14T19:36:52.817Z,3.70
2023-02-14T19:39:23.094Z,3.70
2023-02-14T19:41:53.344Z,3.45
2023-02-14T19:44:23.145Z,3.21
2023-02-14T19:46:54.323Z,3.43
2023-02-14T19:49:23.282Z,3.45
2023-02-14T19:51:52.338Z,3.30
2023-02-14T19:54:24.093Z,3.39
2023-02-14T19:56:56.091Z,3.43
2023-02-14T19:59:24.702Z,3.28
2023-02-14T20:01:54.871Z,3.14
2023-02-14T20:04:26.276Z,3.25
2023-02-14T20:06:55.203Z,3.17
2023-02-14T20:09:25.649Z,3.28
2023-02-14T20:11:57.992Z,3.24
2023-02-14T20:14:28.874Z,3.17
2023-02-14T20:17:00.723Z,3.03
2023-02-14T20:19:33.594Z,2.81
2023-02-14T20:22:02.381Z,2.78
2023-02-14T20:24:33.270Z,2.69
2023-02-14T20:27:03.287Z,2.78
2023-02-14T20:29:31.956Z,2.80
2023-02-14T20:32:03.611Z,2.70
2023-02-14T20:34:32.318Z,2.78
2023-02-14T20:37:00.919Z,2.94
2023-02-14T20:39:31.561Z,2.85
2023-02-14T20:42:00.118Z,2.74
2023-02-14T20:44:30.123Z,2.74
2023-02-14T20:46:59.122Z,2.87
2023-02-14T20:49:30.735Z,2.95
2023-02-14T20:51:59.688Z,2.95
2023-02-14T20:54:30.109Z,3.01
2023-02-14T20:56:59.151Z,2.83
2023-02-14T20:59:29.183Z,2.98
2023-02-14T21:01:59.507Z,2.94
2023-02-14T21:04:28.444Z,2.76
2023-02-14T21:06:57.878Z,2.86
2023-02-14T21:09:27.137Z,2.67
2023-02-14T21:11:55.479Z,2.69
2023-02-14T21:14:23.853Z,2.61
2023-02-14T21:16:53.512Z,2.50
2023-02-14T21:19:22.314Z,2.41
2023-02-14T21:21:50.702Z,2.38
2023-02-14T21:24:19.189Z,2.33
2023-02-14T21:26:47.611Z,2.40
2023-02-14T21:29:16.312Z,2.25
2023-02-14T21:31:44.910Z,2.35
2023-02-14T21:34:17.210Z,2.35
2023-02-14T21:36:45.557Z,2.18
2023-02-14T21:39:14.216Z,2.14
2023-02-14T21:41:42.566Z,2.22
2023-02-14T21:44:31.296Z,2.15
2023-02-14T21:46:58.690Z,1.98
2023-02-14T21:49:45.826Z,1.76
2023-02-14T21:52:14.223Z,1.81
2023-02-14T21:54:42.997Z,2.09
2023-02-14T21:57:11.391Z,2.15
2023-02-14T21:59:41.838Z,2.12
2023-02-14T22:02:12.091Z,1.98
2023-02-14T22:04:43.300Z,1.89
2023-02-14T22:07:11.683Z,1.86
2023-02-14T22:09:40.006Z,1.91
2023-02-14T22:12:08.842Z,1.79
2023-02-14T22:14:37.193Z,1.75
2023-02-14T22:17:05.685Z,1.54
2023-02-14T22:19:35.285Z,1.73
2023-02-14T22:22:05.648Z,1.74
2023-02-14T22:24:33.983Z,1.70
2023-02-14T22:27:02.331Z,1.68
2023-02-14T22:29:30.862Z,1.79
2023-02-14T22:31:59.330Z,1.73
2023-02-14T22:34:28.194Z,1.66
2023-02-14T22:36:56.583Z,1.68
2023-02-14T22:39:26.337Z,1.65
2023-02-14T22:41:54.690Z,1.57
2023-02-14T22:44:23.063Z,1.50
2023-02-14T22:46:51.544Z,1.42
2023-02-14T22:49:19.964Z,1.34
2023-02-14T22:51:48.291Z,1.28
2023-02-14T22:54:17.594Z,1.38
2023-02-14T22:56:50.174Z,1.28
2023-02-14T22:59:21.739Z,1.21
2023-02-14T23:01:51.445Z,1.23
2023-02-14T23:04:22.967Z,1.28
2023-02-14T23:06:53.077Z,1.29
2023-02-14T23:09:22.235Z,1.27
2023-02-14T23:11:52.328Z,1.19
2023-02-14T23:14:39.215Z,1.21
2023-02-14T23:17:25.552Z,1.20
2023-02-14T23:20:11.292Z,1.09
2023-02-14T23:22:41.545Z,1.11
2023-02-14T23:25:12.770Z,1.08
2023-02-14T23:27:44.580Z,0.91
2023-02-14T23:30:16.098Z,0.69
2023-02-14T23:32:45.121Z,0.72
2023-02-14T23:35:13.772Z,0.86
2023-02-14T23:37:42.533Z,0.70
2023-02-14T23:40:11.924Z,0.67
2023-02-14T23:42:40.248Z,0.49
2023-02-14T23:45:28.263Z,0.62
2023-02-14T23:47:56.679Z,0.71
2023-02-14T23:50:25.036Z,0.66
2023-02-14T23:52:53.507Z,0.65
2023-02-14T23:55:21.854Z,0.58
2023-02-14T23:57:50.164Z,0.52
